Time;durP1;ratioP1;P1;durP2;ratioP2;P2;SDS_P1;SDS_P2;PMS_P1;PMS_P2;Temp;Humidity;BMP_temperature;BMP_pressure;BME280_temperature;BME280_humidity;BME280_pressure;Samples;Min_cycle;Max_cycle;Signal;HPM_P1;HPM_P2
2023/12/01 00:02:11;;;;;;;0.80;0.73;;;;;;;;;;4880569;29;20481;-77
2023/12/01 00:04:39;;;;;;;4.20;1.33;;;3.60;99.90;;;;;;4880633;29;20993;-77
2023/12/01 00:07:07;;;;;;;0.80;0.50;;;;;;;;;;4880562;29;20518;-77
2023/12/01 00:09:35;;;;;;;3.87;2.10;;;3.50;99.90;;;;;;4894596;29;20460;-77
2023/12/01 00:12:04;;;;;;;0.70;0.20;;;;;;;;;;4881339;29;20478;-76
2023/12/01 00:14:31;;;;;;;2.10;1.13;;;3.50;99.90;;;;;;4880572;29;20478;-78
2023/12/01 00:17:01;;;;;;;5.00;4.30;;;3.40;99.90;;;;;;4897010;29;21028;-77
2023/12/01 00:19:29;;;;;;;2.23;0.40;;;3.40;99.90;;;;;;4893633;29;20442;-77
2023/12/01 00:21:57;;;;;;;0.60;0.17;;;3.40;99.90;;;;;;4880060;29;20478;-76
2023/12/01 00:24:25;;;;;;;2.30;1.50;;;3.40;99.90;;;;;;4892650;29;20524;-77
2023/12/01 00:26:54;;;;;;;0.60;0.10;;;;;;;;;;4882347;29;20442;-77
2023/12/01 00:29:21;;;;;;;1.80;0.57;;;3.30;99.90;;;;;;4880128;29;20882;-77
2023/12/01 00:31:49;;;;;;;4.07;3.60;;;3.30;99.90;;;;;;4880155;29;20474;-76
2023/12/01 00:34:19;;;;;;;3.80;3.20;;;3.30;99.90;;;;;;4881007;29;20451;-77
2023/12/01 00:36:46;;;;;;;1.20;0.67;;;3.30;99.90;;;;;;4880914;29;20826;-77
2023/12/01 00:39:14;;;;;;;0.70;0.40;;;3.30;99.90;;;;;;4892646;29;20489;-76
2023/12/01 00:41:42;;;;;;;1.77;1.67;;;3.30;99.90;;;;;;4899934;29;20465;-76
2023/12/01 00:44:10;;;;;;;2.40;2.20;;;3.40;99.90;;;;;;4889009;29;20446;-76
2023/12/01 00:46:39;;;;;;;6.37;2.53;;;;;;;;;;4880622;29;20922;-77
2023/12/01 00:49:06;;;;;;;2.07;1.23;;;3.40;99.90;;;;;;4881016;29;20454;-76
2023/12/01 00:51:36;;;;;;;3.77;3.43;;;3.30;99.90;;;;;;4888404;29;20497;-76
2023/12/01 00:54:04;;;;;;;2.67;2.07;;;3.30;99.90;;;;;;4882555;29;20831;-76
2023/12/01 00:56:31;;;;;;;1.00;0.70;;;3.30;99.90;;;;;;4885993;29;20450;-77
2023/12/01 00:58:59;;;;;;;1.90;1.80;;;3.20;99.90;;;;;;4880605;29;20537;-77
2023/12/01 05:01:29;;;;;;;0.60;0.20;;;3.10;99.90;;;;;;5362982;23;20554;-76
2023/12/01 05:03:57;;;;;;;3.57;1.33;;;;;;;;;;4887238;29;20514;-76
2023/12/01 05:06:26;;;;;;;0.70;0.37;;;3.00;99.90;;;;;;4886272;29;20478;-76
2023/12/01 05:08:54;;;;;;;1.03;0.93;;;2.90;99.90;;;;;;4892699;29;20454;-75
2023/12/01 05:11:22;;;;;;;2.40;1.53;;;2.90;99.90;;;;;;4891205;29;20499;-76
2023/12/01 05:13:49;;;;;;;0.60;0.10;;;2.80;99.90;;;;;;4871818;29;20491;-76
2023/12/01 05:16:18;;;;;;;6.27;5.87;;;2.90;99.90;;;;;;4868985;29;20486;-75
2023/12/01 05:18:47;;;;;;;0.73;0.47;;;2.90;99.90;;;;;;4867227;29;20494;-76
2023/12/01 05:21:15;;;;;;;0.90;0.50;;;2.90;99.90;;;;;;4868794;29;20475;-77
2023/12/01 05:23:44;;;;;;;0.60;0.20;;;2.90;99.90;;;;;;4870083;29;20455;-77
2023/12/01 05:26:12;;;;;;;2.30;1.20;;;2.80;99.90;;;;;;4863779;29;20490;-77
2023/12/01 05:28:40;;;;;;;1.10;0.87;;;2.80;99.90;;;;;;4870861;29;20451;-76
2023/12/01 05:31:10;;;;;;;0.60;0.20;;;2.90;99.90;;;;;;4868784;29;21010;-75
2023/12/01 05:33:38;;;;;;;2.53;0.93;;;2.90;99.90;;;;;;4867782;29;20455;-77
2023/12/01 05:36:09;;;;;;;1.20;0.60;;;2.80;99.90;;;;;;4866643;29;20468;-77
2023/12/01 05:38:36;;;;;;;1.57;1.47;;;2.80;99.90;;;;;;4864416;29;20507;-76
2023/12/01 05:41:09;;;;;;;2.20;2.00;;;2.90;99.90;;;;;;4870680;29;20478;-76
2023/12/01 05:43:39;;;;;;;10.03;3.73;;;2.80;99.90;;;;;;4862111;29;20541;-76
2023/12/01 05:46:07;;;;;;;2.90;2.53;;;2.90;99.90;;;;;;4877220;29;20486;-76
2023/12/01 05:48:37;;;;;;;1.47;1.37;;;;;;;;;;4873312;29;20533;-76
2023/12/01 05:51:05;;;;;;;1.63;0.93;;;2.90;99.90;;;;;;4875857;29;20555;-77
2023/12/01 05:53:34;;;;;;;0.60;0.10;;;2.90;99.90;;;;;;4862530;29;20479;-76
2023/12/01 05:56:03;;;;;;;0.60;0.10;;;;;;;;;;4861383;29;20575;-77
2023/12/01 05:58:31;;;;;;;6.80;6.43;;;2.90;99.90;;;;;;4866871;29;20476;-76
2023/12/01 06:00:59;;;;;;;0.70;0.37;;;2.90;99.90;;;;;;4864012;29;20487;-76
2023/12/01 06:03:26;;;;;;;0.60;0.20;;;3.00;99.90;;;;;;4864599;29;20455;-75
2023/12/01 06:05:54;;;;;;;2.80;1.47;;;3.00;99.90;;;;;;4884452;29;20470;-75
2023/12/01 06:08:22;;;;;;;3.23;0.90;;;3.10;99.90;;;;;;4890934;29;20537;-77
2023/12/01 06:10:52;;;;;;;0.60;0.10;;;3.00;99.90;;;;;;4878982;29;20462;-77
2023/12/01 06:13:19;;;;;;;0.97;0.87;;;3.00;99.90;;;;;;4878794;29;20482;-77
2023/12/01 06:15:47;;;;;;;0.60;0.10;;;3.00;99.90;;;;;;4874488;29;20450;-76
2023/12/01 06:18:15;;;;;;;0.60;0.20;;;3.00;99.90;;;;;;4878910;29;20446;-76
2023/12/01 06:20:43;;;;;;;0.60;0.20;;;3.00;99.90;;;;;;4868375;29;20630;-77
2023/12/01 06:23:11;;;;;;;0.63;0.23;;;3.00;99.90;;;;;;4876758;29;20465;-76
2023/12/01 06:25:41;;;;;;;0.70;0.40;;;3.00;99.90;;;;;;4879094;29;20576;-77
2023/12/01 06:28:11;;;;;;;0.60;0.10;;;3.00;99.90;;;;;;4879381;29;20446;-77
2023/12/01 06:30:40;;;;;;;0.60;0.13;;;3.00;99.90;;;;;;4879969;29;20467;-75
2023/12/01 06:33:08;;;;;;;0.60;0.20;;;3.00;99.90;;;;;;4880593;29;20450;-77
2023/12/01 06:35:37;;;;;;;0.60;0.10;;;3.00;99.90;;;;;;4881935;29;20458;-75
2023/12/01 06:38:06;;;;;;;0.60;0.10;;;3.00;99.90;;;;;;4874378;29;20454;-77
2023/12/01 06:40:34;;;;;;;0.60;0.10;;;3.00;99.90;;;;;;4881715;29;20470;-78
2023/12/01 06:43:09;;;;;;;1.00;0.80;;;;;;;;;;4876294;29;20451;-77
2023/12/01 06:45:41;;;;;;;0.60;0.10;;;3.00;99.90;;;;;;4878260;29;20541;-77
2023/12/01 06:48:11;;;;;;;0.60;0.20;;;;;;;;;;4885935;29;20450;-77
2023/12/01 06:50:39;;;;;;;2.07;1.60;;;3.00;99.90;;;;;;4887824;29;20470;-76
2023/12/01 06:53:07;;;;;;;1.67;0.53;;;2.90;99.90;;;;;;4886595;29;20492;-75
2023/12/01 06:55:36;;;;;;;0.60;0.20;;;2.90;99.90;;;;;;4869961;29;20446;-76
2023/12/01 06:58:04;;;;;;;0.60;0.20;;;3.00;99.90;;;;;;4885215;29;20502;-75
2023/12/01 07:00:33;;;;;;;1.73;1.23;;;3.00;99.90;;;;;;4888190;29;20553;-75
2023/12/01 07:03:04;;;;;;;0.60;0.10;;;2.90;99.90;;;;;;4897272;29;20506;-76
2023/12/01 07:05:34;;;;;;;0.73;0.73;;;2.90;99.90;;;;;;4889979;29;20452;-77
2023/12/01 07:08:03;;;;;;;0.60;0.20;;;2.90;99.90;;;;;;4895482;29;20919;-76
2023/12/01 07:10:32;;;;;;;0.80;0.57;;;3.00;99.90;;;;;;4893522;29;20466;-77
2023/12/01 07:13:00;;;;;;;1.03;0.93;;;2.90;99.90;;;;;;4888186;29;20453;-78
2023/12/01 07:15:29;;;;;;;0.77;0.73;;;2.90;99.90;;;;;;4888060;29;20545;-77
2023/12/01 07:17:58;;;;;;;2.20;0.83;;;2.90;99.90;;;;;;4886820;29;20452;-75
2023/12/01 07:20:28;;;;;;;1.03;0.43;;;2.90;99.90;;;;;;4890506;29;20449;-76
2023/12/01 07:22:56;;;;;;;1.30;1.13;;;2.90;99.90;;;;;;4890441;29;20493;-74
2023/12/01 07:25:25;;;;;;;0.80;0.60;;;3.00;99.90;;;;;;4881620;29;20471;-77
2023/12/01 07:27:55;;;;;;;0.87;0.50;;;3.00;99.90;;;;;;4873466;29;20230;-77
2023/12/01 07:30:24;;;;;;;4.03;0.77;;;3.00;99.90;;;;;;4881151;29;20465;-74
2023/12/01 07:32:53;;;;;;;1.73;0.77;;;3.00;99.90;;;;;;4867534;29;20492;-76
2023/12/01 07:35:21;;;;;;;3.17;1.17;;;3.00;99.90;;;;;;4881857;29;20506;-77
2023/12/01 07:37:52;;;;;;;1.67;0.97;;;3.00;99.90;;;;;;4867840;29;20458;-78
2023/12/01 07:40:23;;;;;;;2.77;1.23;;;2.90;99.90;;;;;;4883290;29;20457;-77
2023/12/01 07:42:54;;;;;;;0.70;0.47;;;2.90;99.90;;;;;;4884618;29;20556;-78
2023/12/01 07:45:22;;;;;;;1.23;1.13;;;2.80;99.90;;;;;;4881312;29;20474;-77
2023/12/01 07:47:52;;;;;;;3.53;2.70;;;2.90;99.90;;;;;;4869913;29;20493;-76
2023/12/01 07:50:21;;;;;;;0.80;0.40;;;2.90;99.90;;;;;;4867150;29;20982;-77
2023/12/01 07:52:51;;;;;;;1.33;1.23;;;2.90;99.90;;;;;;4865846;29;20459;-77
2023/12/01 07:55:20;;;;;;;0.77;0.53;;;3.00;99.90;;;;;;4864670;29;20519;-78
2023/12/01 07:57:48;;;;;;;1.20;1.10;;;3.00;99.90;;;;;;4875140;29;21009;-76
2023/12/01 08:00:17;;;;;;;0.83;0.57;;;3.00;99.90;;;;;;4875414;29;20926;-76
2023/12/01 08:02:47;;;;;;;0.80;0.63;;;2.90;99.90;;;;;;4868428;29;20471;-75
2023/12/01 08:05:16;;;;;;;0.77;0.50;;;2.90;99.90;;;;;;4871898;29;20450;-76
2023/12/01 08:07:47;;;;;;;2.83;2.53;;;2.80;99.90;;;;;;4883006;29;20590;-77
2023/12/01 08:10:16;;;;;;;0.70;0.33;;;2.80;99.90;;;;;;4876045;29;20451;-77
2023/12/01 08:12:46;;;;;;;0.60;0.20;;;2.80;99.90;;;;;;4884276;29;20820;-77
2023/12/01 08:15:15;;;;;;;10.03;2.20;;;2.70;99.90;;;;;;4889034;29;20465;-75
2023/12/01 08:17:44;;;;;;;1.67;1.57;;;2.60;99.90;;;;;;4879067;29;20450;-78
2023/12/01 08:20:14;;;;;;;2.93;1.80;;;2.60;99.90;;;;;;4883428;29;20477;-75
2023/12/01 08:22:43;;;;;;;1.03;0.93;;;2.50;99.90;;;;;;4877350;29;21187;-76
2023/12/01 08:25:13;;;;;;;0.83;0.60;;;2.50;99.90;;;;;;4864353;29;20494;-76
2023/12/01 08:27:43;;;;;;;0.70;0.30;;;2.60;99.90;;;;;;4882912;29;20481;-77
2023/12/01 08:30:11;;;;;;;3.07;2.83;;;2.60;99.90;;;;;;4891207;29;20518;-77
2023/12/01 08:32:47;;;;;;;0.70;0.30;;;2.60;99.90;;;;;;4884619;29;20447;-77
2023/12/01 08:35:15;;;;;;;3.07;2.87;;;2.60;99.90;;;;;;4880374;29;20477;-75
2023/12/01 08:37:44;;;;;;;0.70;0.40;;;2.80;99.90;;;;;;4886632;29;20443;-77
2023/12/01 08:40:12;;;;;;;0.60;0.10;;;2.70;99.90;;;;;;4884944;29;20496;-76
2023/12/01 08:42:43;;;;;;;3.00;1.13;;;2.70;99.90;;;;;;4882596;29;20446;-77
2023/12/01 08:45:12;;;;;;;0.60;0.10;;;2.70;99.90;;;;;;4882696;29;20458;-76
2023/12/01 08:47:40;;;;;;;1.93;0.50;;;2.80;99.90;;;;;;4882910;29;20554;-76
2023/12/01 08:50:10;;;;;;;1.57;0.77;;;;;;;;;;4874075;29;20546;-75
2023/12/01 08:52:38;;;;;;;0.70;0.47;;;2.80;99.90;;;;;;4882582;29;20451;-78
2023/12/01 08:55:07;;;;;;;5.77;2.87;;;2.80;99.90;;;;;;4881787;29;20452;-77
2023/12/01 08:57:35;;;;;;;3.33;2.87;;;2.70;99.90;;;;;;4878450;29;20451;-76
2023/12/01 09:00:06;;;;;;;2.93;1.13;;;2.60;99.90;;;;;;4863582;29;20479;-75
2023/12/01 09:02:35;;;;;;;2.47;2.27;;;;;;;;;;4862995;29;20478;-76
2023/12/01 09:05:04;;;;;;;2.70;1.37;;;2.50;99.90;;;;;;4865423;29;20965;-76
2023/12/01 09:07:32;;;;;;;1.90;1.10;;;2.40;99.90;;;;;;4872695;29;20521;-76
2023/12/01 09:10:00;;;;;;;1.17;0.87;;;2.50;99.90;;;;;;4881102;29;20455;-77
2023/12/01 09:12:28;;;;;;;0.60;0.20;;;2.50;99.90;;;;;;4881619;29;20474;-77
2023/12/01 09:14:56;;;;;;;3.73;3.40;;;2.60;99.90;;;;;;4879705;29;20466;-78
2023/12/01 09:17:26;;;;;;;0.60;0.20;;;2.70;99.90;;;;;;4881070;29;20941;-77
2023/12/01 09:19:54;;;;;;;0.60;0.30;;;2.70;99.90;;;;;;4881376;29;20457;-78
2023/12/01 09:22:22;;;;;;;0.60;0.20;;;2.80;99.90;;;;;;4880488;29;20475;-76
2023/12/01 09:24:50;;;;;;;1.07;0.77;;;2.90;99.90;;;;;;4880587;29;21063;-76
2023/12/01 09:27:19;;;;;;;0.60;0.10;;;2.90;99.90;;;;;;4881828;29;20525;-75
2023/12/01 09:29:47;;;;;;;1.10;0.93;;;2.80;99.90;;;;;;4869833;29;20451;-77
2023/12/01 09:32:15;;;;;;;1.77;1.50;;;2.80;99.90;;;;;;4878037;29;20571;-76
2023/12/01 09:34:44;;;;;;;0.90;0.50;;;2.80;99.90;;;;;;4875209;29;20953;-76
2023/12/01 09:37:13;;;;;;;1.33;1.23;;;2.80;99.90;;;;;;4884757;29;20451;-77
2023/12/01 09:39:41;;;;;;;2.30;1.77;;;2.80;99.90;;;;;;4890084;29;20457;-76
2023/12/01 09:42:14;;;;;;;0.70;0.40;;;2.80;99.90;;;;;;4891330;29;20462;-75
2023/12/01 09:44:43;;;;;;;1.43;0.50;;;1.70;99.90;;;;;;4884978;29;20963;-76
2023/12/01 09:47:13;;;;;;;0.70;0.30;;;2.80;99.90;;;;;;4891567;29;20479;-74
2023/12/01 09:49:42;;;;;;;0.60;0.20;;;2.80;99.90;;;;;;4891863;29;20510;-75
2023/12/01 09:52:11;;;;;;;0.60;0.10;;;2.90;99.90;;;;;;4877541;29;20841;-76
2023/12/01 09:54:39;;;;;;;0.60;0.20;;;2.90;99.90;;;;;;4885645;29;20522;-76
2023/12/01 09:57:07;;;;;;;0.60;0.17;;;2.90;99.90;;;;;;4880277;29;20475;-76
2023/12/01 09:59:38;;;;;;;0.80;0.50;;;2.90;99.90;;;;;;4885735;29;20446;-75
2023/12/01 10:02:06;;;;;;;2.37;1.90;;;3.00;99.90;;;;;;4882884;29;20490;-76
2023/12/01 10:04:35;;;;;;;0.60;0.20;;;2.90;99.90;;;;;;4864533;29;20446;-76
2023/12/01 10:07:04;;;;;;;3.03;1.30;;;2.90;99.90;;;;;;4862843;29;20451;-76
2023/12/01 10:09:33;;;;;;;2.87;0.97;;;2.90;99.90;;;;;;4861737;29;20529;-76
2023/12/01 10:12:09;;;;;;;0.70;0.63;;;2.90;99.90;;;;;;4863265;29;20486;-76
2023/12/01 10:14:38;;;;;;;0.70;0.60;;;2.90;99.90;;;;;;4862400;29;20450;-76
2023/12/01 10:17:08;;;;;;;0.80;0.53;;;2.90;99.90;;;;;;4861814;29;20917;-76
2023/12/01 10:19:45;;;;;;;0.60;0.30;;;2.90;99.90;;;;;;4863508;29;20589;-77
2023/12/01 10:22:16;;;;;;;1.00;0.50;;;2.80;99.90;;;;;;4865797;29;20502;-77
2023/12/01 10:24:56;;;;;;;2.67;1.20;;;2.80;99.90;;;;;;4873963;29;20503;-74
2023/12/01 10:27:24;;;;;;;0.60;0.20;;;2.70;99.90;;;;;;4873866;29;20486;-76
2023/12/01 10:29:52;;;;;;;0.67;0.30;;;2.60;99.90;;;;;;4868442;29;20487;-77
2023/12/01 10:32:20;;;;;;;0.90;0.40;;;2.70;99.90;;;;;;4870376;29;20487;-78
2023/12/01 10:34:52;;;;;;;3.80;0.50;;;2.80;99.90;;;;;;4875287;29;20466;-77
2023/12/01 10:37:23;;;;;;;1.27;0.50;;;2.80;99.90;;;;;;4865997;29;20503;-75
2023/12/01 10:39:55;;;;;;;0.70;0.30;;;2.90;99.90;;;;;;4868998;29;20933;-78
2023/12/01 10:42:24;;;;;;;1.10;1.00;;;2.90;99.90;;;;;;4883256;29;20487;-77
2023/12/01 10:44:53;;;;;;;0.93;0.60;;;3.00;99.90;;;;;;4894277;29;20479;-78
2023/12/01 10:47:23;;;;;;;0.60;0.20;;;3.00;99.90;;;;;;4887618;29;20462;-76
2023/12/01 10:49:51;;;;;;;0.60;0.10;;;4.80;99.90;;;;;;4887139;29;20510;-76
2023/12/01 10:52:20;;;;;;;3.67;2.30;;;2.90;99.90;;;;;;4889435;29;20474;-75
2023/12/01 10:54:49;;;;;;;1.17;0.97;;;2.70;99.90;;;;;;4884195;29;20458;-78
2023/12/01 10:57:29;;;;;;;0.60;0.20;;;2.80;99.90;;;;;;4869220;29;20565;-76
2023/12/01 11:00:01;;;;;;;1.40;1.30;;;2.80;99.90;;;;;;4869297;29;20514;-78
2023/12/01 11:02:31;;;;;;;3.40;0.83;;;2.80;99.90;;;;;;4880229;29;20517;-78
2023/12/01 11:05:01;;;;;;;0.70;0.30;;;2.90;99.90;;;;;;4878523;29;20440;-77
2023/12/01 11:07:42;;;;;;;0.80;0.50;;;3.00;99.90;;;;;;4865842;29;20477;-77
2023/12/01 11:10:22;;;;;;;0.60;0.30;;;3.00;99.90;;;;;;4863461;29;20519;-77
2023/12/01 11:13:16;;;;;;;0.60;0.10;;;3.00;99.90;;;;;;4864017;29;21002;-78
2023/12/01 11:15:46;;;;;;;1.80;1.70;;;3.00;99.90;;;;;;4873392;29;20470;-75
2023/12/01 11:18:14;;;;;;;0.90;0.57;;;2.90;99.90;;;;;;4878848;29;20506;-76
2023/12/01 11:20:44;;;;;;;0.60;0.10;;;2.90;99.90;;;;;;4878810;29;20505;-78
2023/12/01 11:23:33;;;;;;;0.80;0.67;;;2.80;99.90;;;;;;4887692;29;20533;-76
2023/12/01 11:26:07;;;;;;;0.60;0.20;;;2.80;99.90;;;;;;4870528;29;20871;-76
2023/12/01 11:28:43;;;;;;;2.13;0.77;;;;;;;;;;4866687;29;20521;-76
2023/12/01 11:31:16;;;;;;;4.40;1.70;;;2.90;99.90;;;;;;4866851;29;20467;-77
2023/12/01 11:33:47;;;;;;;0.60;0.30;;;2.80;99.90;;;;;;4868865;29;20568;-77
2023/12/01 11:36:30;;;;;;;0.60;0.10;;;2.80;99.90;;;;;;4884005;29;20450;-78
2023/12/01 11:39:17;;;;;;;0.60;0.20;;;2.90;99.90;;;;;;4878792;29;21037;-77
2023/12/01 11:42:04;;;;;;;0.70;0.67;;;2.90;99.90;;;;;;4882127;29;20479;-77
2023/12/01 11:44:37;;;;;;;1.07;0.87;;;3.00;99.90;;;;;;4869239;29;20498;-75
2023/12/01 11:47:11;;;;;;;2.70;1.13;;;3.00;99.90;;;;;;4877276;29;20733;-76
2023/12/01 11:49:42;;;;;;;3.13;1.77;;;2.90;99.90;;;;;;4885121;29;20546;-76
2023/12/01 11:52:14;;;;;;;0.60;0.30;;;2.80;99.90;;;;;;4876137;29;20871;-76
2023/12/01 11:54:43;;;;;;;0.80;0.73;;;2.80;99.90;;;;;;4864449;29;20518;-77
2023/12/01 11:57:14;;;;;;;0.60;0.10;;;2.80;99.90;;;;;;4877305;29;20514;-77
2023/12/01 11:59:43;;;;;;;0.70;0.30;;;2.90;99.90;;;;;;4882060;29;20450;-77
2023/12/01 12:02:14;;;;;;;0.70;0.50;;;3.00;99.90;;;;;;4881971;29;20474;-77
2023/12/01 12:04:46;;;;;;;0.90;0.77;;;3.00;99.90;;;;;;4882759;29;20455;-77
2023/12/01 12:07:16;;;;;;;0.60;0.20;;;3.00;99.90;;;;;;4882382;29;20984;-77
2023/12/01 12:09:44;;;;;;;1.10;0.47;;;2.90;99.90;;;;;;4882566;29;20494;-77
2023/12/01 12:12:13;;;;;;;0.90;0.50;;;2.80;99.90;;;;;;4876395;29;20475;-76
2023/12/01 12:14:46;;;;;;;1.13;0.60;;;2.60;99.90;;;;;;4870267;29;20477;-78
2023/12/01 12:17:15;;;;;;;1.00;0.70;;;2.70;99.90;;;;;;4864316;29;20538;-79
2023/12/01 12:19:47;;;;;;;1.50;1.40;;;2.70;99.90;;;;;;4866095;29;20992;-77
2023/12/01 12:22:22;;;;;;;1.53;1.43;;;2.70;99.90;;;;;;4868856;29;20507;-78
2023/12/01 12:24:57;;;;;;;0.60;0.10;;;2.80;99.90;;;;;;4869279;29;20454;-79
2023/12/01 12:27:25;;;;;;;0.60;0.10;;;2.80;99.90;;;;;;4868224;29;20543;-74
2023/12/01 12:29:55;;;;;;;1.40;1.30;;;;;;;;;;4871141;29;20846;-75
2023/12/01 12:32:23;;;;;;;0.70;0.50;;;2.80;99.90;;;;;;4871035;29;20498;-76
2023/12/01 12:34:51;;;;;;;0.60;0.20;;;2.80;99.90;;;;;;4881618;29;20457;-76
2023/12/01 12:37:19;;;;;;;0.80;0.53;;;2.80;99.90;;;;;;4881053;29;20450;-76
2023/12/01 12:39:51;;;;;;;2.10;0.73;;;2.80;99.90;;;;;;4873624;29;20537;-76
2023/12/01 12:42:19;;;;;;;2.87;2.67;;;2.80;99.90;;;;;;4869799;29;20531;-78
2023/12/01 12:44:47;;;;;;;2.40;0.60;;;2.80;99.90;;;;;;4881195;29;20568;-78
2023/12/01 12:47:16;;;;;;;0.90;0.40;;;2.80;99.90;;;;;;4878965;29;20830;-74
2023/12/01 12:49:45;;;;;;;0.73;0.30;;;2.80;99.90;;;;;;4878255;29;20495;-76
2023/12/01 12:52:13;;;;;;;0.60;0.10;;;2.70;99.90;;;;;;4877970;29;20486;-77
2023/12/01 12:54:41;;;;;;;0.90;0.80;;;2.70;99.90;;;;;;4875820;29;20967;-76
2023/12/01 12:57:10;;;;;;;1.60;1.50;;;2.60;99.90;;;;;;4872824;29;20450;-76
2023/12/01 12:59:38;;;;;;;3.80;1.13;;;2.60;99.90;;;;;;4868204;29;20462;-73
2023/12/01 13:02:06;;;;;;;0.60;0.20;;;2.60;99.90;;;;;;4862248;29;20475;-76
2023/12/01 13:04:35;;;;;;;5.07;2.50;;;2.60;99.90;;;;;;4873162;29;20473;-76
2023/12/01 13:07:03;;;;;;;4.07;1.10;;;2.60;99.90;;;;;;4861266;29;20458;-76
2023/12/01 13:09:31;;;;;;;9.77;2.23;;;2.60;99.90;;;;;;4876915;29;20910;-75
2023/12/01 13:11:59;;;;;;;1.73;0.93;;;2.60;99.90;;;;;;4879161;29;20466;-76
2023/12/01 13:14:40;;;;;;;0.77;0.77;;;2.60;99.90;;;;;;4880281;29;20476;-75
2023/12/01 13:17:09;;;;;;;3.17;2.17;;;2.60;99.90;;;;;;4874285;29;20537;-76
2023/12/01 13:19:38;;;;;;;2.83;2.57;;;;;;;;;;4879169;29;20530;-78
2023/12/01 13:22:06;;;;;;;2.03;1.40;;;2.50;99.90;;;;;;4880132;29;20469;-77
2023/12/01 13:24:34;;;;;;;1.57;0.97;;;2.50;99.90;;;;;;4880270;29;20470;-78
2023/12/01 13:27:03;;;;;;;2.47;2.33;;;;;;;;;;4881842;29;20454;-76
2023/12/01 13:29:31;;;;;;;1.00;0.30;;;2.50;99.90;;;;;;4872066;29;20486;-77
2023/12/01 13:31:59;;;;;;;1.20;0.50;;;2.50;99.90;;;;;;4873753;29;20474;-76
2023/12/01 13:34:27;;;;;;;1.47;0.67;;;2.60;99.90;;;;;;4883090;29;20462;-77
2023/12/01 13:36:56;;;;;;;4.67;1.40;;;2.70;99.90;;;;;;4875930;29;20451;-79
2023/12/01 13:39:25;;;;;;;1.30;0.73;;;2.70;99.90;;;;;;4877354;29;20497;-77
2023/12/01 13:41:53;;;;;;;0.70;0.20;;;2.80;99.90;;;;;;4877658;29;20469;-75
2023/12/01 13:44:21;;;;;;;2.13;1.83;;;2.60;99.90;;;;;;4877647;29;20521;-78
2023/12/01 13:46:49;;;;;;;2.80;2.13;;;2.60;99.90;;;;;;4880416;29;20458;-76
2023/12/01 13:49:18;;;;;;;3.43;3.20;;;2.80;99.90;;;;;;4887120;29;20461;-76
2023/12/01 13:51:45;;;;;;;2.30;1.23;;;2.50;99.90;;;;;;4874937;29;20478;-78
2023/12/01 13:54:15;;;;;;;1.53;0.63;;;2.50;99.90;;;;;;4875315;29;20454;-77
2023/12/01 13:56:43;;;;;;;1.07;0.97;;;2.50;99.90;;;;;;4882913;29;20945;-76
2023/12/01 13:59:11;;;;;;;0.60;0.10;;;2.50;99.90;;;;;;4884532;29;20454;-78
2023/12/01 14:01:40;;;;;;;1.10;0.60;;;2.50;99.90;;;;;;4871555;29;20517;-79
2023/12/01 14:04:08;;;;;;;1.53;1.07;;;2.50;99.90;;;;;;4883269;29;20801;-77
2023/12/01 14:06:36;;;;;;;0.60;0.10;;;2.50;99.90;;;;;;4876833;29;20470;-77
2023/12/01 14:09:06;;;;;;;1.67;1.57;;;2.50;99.90;;;;;;4884694;29;20439;-78
2023/12/01 14:11:35;;;;;;;1.23;1.13;;;2.50;99.90;;;;;;4890408;29;20993;-77
2023/12/01 14:14:03;;;;;;;2.00;1.20;;;2.50;99.90;;;;;;4881072;29;20458;-78
2023/12/01 14:16:32;;;;;;;1.00;0.87;;;2.40;99.90;;;;;;4872009;29;20455;-77
2023/12/01 14:19:00;;;;;;;1.13;1.03;;;2.40;99.90;;;;;;4864486;29;20454;-77
2023/12/01 14:21:29;;;;;;;3.43;2.70;;;2.30;99.90;;;;;;4880531;29;20891;-78
2023/12/01 14:23:57;;;;;;;3.53;1.30;;;2.30;99.90;;;;;;4880094;29;20529;-77
2023/12/01 14:26:25;;;;;;;1.37;1.27;;;2.30;99.90;;;;;;4882679;29;20545;-77
2023/12/01 14:28:55;;;;;;;0.70;0.50;;;;;;;;;;4886697;29;20450;-78
2023/12/01 14:31:23;;;;;;;5.03;3.07;;;2.20;99.90;;;;;;4867691;29;20569;-77
2023/12/01 14:33:52;;;;;;;0.93;0.50;;;2.30;99.90;;;;;;4878877;29;20454;-77
2023/12/01 14:36:20;;;;;;;0.60;0.20;;;2.20;99.90;;;;;;4879524;29;20453;-78
2023/12/01 14:38:48;;;;;;;2.40;1.33;;;2.20;99.90;;;;;;4878924;29;20454;-78
2023/12/01 14:41:16;;;;;;;0.60;0.10;;;2.20;99.90;;;;;;4879297;29;20470;-77
2023/12/01 14:43:44;;;;;;;0.70;0.60;;;2.20;99.90;;;;;;4880570;29;20813;-75
2023/12/01 14:46:14;;;;;;;3.63;1.97;;;2.20;99.90;;;;;;4864947;29;20487;-78
2023/12/01 14:48:42;;;;;;;2.80;2.10;;;2.20;99.90;;;;;;4878035;29;20454;-78
2023/12/01 14:51:10;;;;;;;0.70;0.30;;;;;;;;;;4874170;29;20989;-77
2023/12/01 14:53:38;;;;;;;2.20;0.97;;;2.10;99.90;;;;;;4870496;29;20510;-78
2023/12/01 14:56:11;;;;;;;0.70;0.47;;;2.20;99.90;;;;;;4872056;29;20453;-76
2023/12/01 14:58:40;;;;;;;2.07;1.03;;;2.10;99.90;;;;;;4882486;29;20474;-78
2023/12/01 15:01:08;;;;;;;0.93;0.67;;;2.10;99.90;;;;;;4872255;29;20479;-78
2023/12/01 15:03:38;;;;;;;4.00;2.83;;;2.00;99.90;;;;;;4878281;29;20466;-79
2023/12/01 15:06:08;;;;;;;0.87;0.87;;;2.00;99.90;;;;;;4880949;29;20505;-78
2023/12/01 15:08:36;;;;;;;1.17;0.80;;;2.10;99.90;;;;;;4880077;29;20454;-76
2023/12/01 15:11:04;;;;;;;0.60;0.30;;;2.10;99.90;;;;;;4879050;29;20495;-76
2023/12/01 15:13:32;;;;;;;11.03;2.47;;;2.00;99.90;;;;;;4873802;29;20498;-77
2023/12/01 15:16:00;;;;;;;3.23;2.27;;;1.90;99.90;;;;;;4864170;29;20497;-76
2023/12/01 15:18:31;;;;;;;1.20;0.60;;;2.10;99.90;;;;;;4866566;29;20516;-76
2023/12/01 15:21:05;;;;;;;0.70;0.30;;;2.00;99.90;;;;;;4871665;29;20516;-78
2023/12/01 15:23:33;;;;;;;1.13;0.83;;;1.90;99.90;;;;;;4870396;29;20451;-77
2023/12/01 15:26:01;;;;;;;1.00;0.60;;;2.00;99.90;;;;;;4874763;29;20463;-78
2023/12/01 15:28:32;;;;;;;0.90;0.40;;;2.00;99.90;;;;;;4872813;29;20797;-78
2023/12/01 15:31:00;;;;;;;0.80;0.50;;;2.00;99.90;;;;;;4865495;29;20490;-77
2023/12/01 15:33:28;;;;;;;0.70;0.30;;;2.00;99.90;;;;;;4878812;29;20462;-78
2023/12/01 15:35:56;;;;;;;0.70;0.63;;;2.10;99.90;;;;;;4867075;29;20504;-78
2023/12/01 15:38:26;;;;;;;0.60;0.20;;;2.10;99.90;;;;;;4879325;29;20458;-76
2023/12/01 15:40:55;;;;;;;0.60;0.20;;;2.00;99.90;;;;;;4880135;29;20494;-77
2023/12/01 15:43:23;;;;;;;0.80;0.60;;;3.60;99.90;;;;;;4879248;29;20447;-77
2023/12/01 15:45:51;;;;;;;1.80;1.70;;;1.80;99.90;;;;;;4873054;29;20844;-77
2023/12/01 15:48:18;;;;;;;1.17;0.40;;;1.90;99.90;;;;;;4881969;29;20948;-76
2023/12/01 15:50:46;;;;;;;1.10;0.67;;;1.80;99.90;;;;;;4891413;29;20564;-78
2023/12/01 15:53:14;;;;;;;7.37;1.53;;;1.80;99.90;;;;;;4890108;29;20455;-77
2023/12/01 15:55:44;;;;;;;3.13;2.03;;;1.80;99.90;;;;;;4887692;29;20968;-77
2023/12/01 15:58:12;;;;;;;2.17;1.97;;;1.80;99.90;;;;;;4874582;29;20446;-77
2023/12/01 16:00:42;;;;;;;4.30;1.13;;;1.80;99.90;;;;;;4872636;29;20573;-76
2023/12/01 16:03:11;;;;;;;3.70;2.97;;;1.80;99.90;;;;;;4870261;29;20467;-76
2023/12/01 16:05:40;;;;;;;3.73;2.17;;;1.80;99.90;;;;;;4871305;29;20462;-77
2023/12/01 16:08:08;;;;;;;0.60;0.10;;;1.70;99.90;;;;;;4870861;29;20459;-76
2023/12/01 16:10:36;;;;;;;2.73;1.13;;;1.70;99.90;;;;;;4876312;29;20474;-77
2023/12/01 16:13:06;;;;;;;2.93;1.40;;;1.70;99.90;;;;;;4876436;29;20446;-76
2023/12/01 16:15:34;;;;;;;4.93;1.27;;;1.70;99.90;;;;;;4890063;29;20451;-76
2023/12/01 16:18:03;;;;;;;1.53;1.10;;;1.70;99.90;;;;;;4886210;29;20441;-76
2023/12/01 16:20:31;;;;;;;1.80;1.60;;;1.70;99.90;;;;;;4872798;29;20469;-76
2023/12/01 16:22:59;;;;;;;2.30;2.10;;;1.70;99.90;;;;;;4866151;29;20456;-77
2023/12/01 16:25:27;;;;;;;1.93;0.97;;;1.80;99.90;;;;;;4868701;29;20495;-78
2023/12/01 16:27:55;;;;;;;0.70;0.53;;;1.90;99.90;;;;;;4867517;29;20482;-77
2023/12/01 16:30:24;;;;;;;1.43;1.33;;;1.90;99.90;;;;;;4870863;29;20447;-78
2023/12/01 16:32:53;;;;;;;1.97;0.43;;;1.90;99.90;;;;;;4866409;29;20491;-76
2023/12/01 16:35:22;;;;;;;1.23;0.77;;;1.90;99.90;;;;;;4870252;29;20447;-76
2023/12/01 16:37:49;;;;;;;1.13;0.93;;;1.80;99.90;;;;;;4875631;29;20458;-75
2023/12/01 16:40:17;;;;;;;2.10;1.67;;;1.80;99.90;;;;;;4876768;29;20466;-77
2023/12/01 16:42:48;;;;;;;6.87;1.73;;;1.90;99.90;;;;;;4874861;29;20486;-77
2023/12/01 16:45:16;;;;;;;0.60;0.10;;;1.90;99.90;;;;;;4866486;29;20466;-76
2023/12/01 16:47:47;;;;;;;0.60;0.20;;;1.90;99.90;;;;;;4862983;29;20457;-76
2023/12/01 16:50:15;;;;;;;2.57;2.07;;;2.00;99.90;;;;;;4870730;29;20547;-76
2023/12/01 16:52:43;;;;;;;5.00;2.33;;;1.90;99.90;;;;;;4864334;29;20495;-76
2023/12/01 16:55:12;;;;;;;0.60;0.10;;;1.80;99.90;;;;;;4881527;29;20541;-76
2023/12/01 16:57:40;;;;;;;1.23;1.03;;;1.90;99.90;;;;;;4881207;29;20462;-76
2023/12/01 17:00:08;;;;;;;0.73;0.60;;;1.90;99.90;;;;;;4876266;29;20465;-76
2023/12/01 17:02:36;;;;;;;0.80;0.50;;;1.90;99.90;;;;;;4885705;29;20478;-77
2023/12/01 17:05:06;;;;;;;0.80;0.77;;;1.70;99.90;;;;;;4886856;29;20442;-75
2023/12/01 17:07:34;;;;;;;1.53;0.90;;;1.70;99.90;;;;;;4887806;29;20477;-77
2023/12/01 17:10:02;;;;;;;1.30;0.83;;;1.70;99.90;;;;;;4887180;29;20462;-77
2023/12/01 17:12:31;;;;;;;3.90;1.50;;;;;;;;;;4884656;29;20492;-75
2023/12/01 17:14:59;;;;;;;1.00;0.40;;;1.60;99.90;;;;;;4882442;29;20458;-75